createdAt,value
2023-01-19T00:01:29.557Z,99948.50
2023-01-19T00:03:56.599Z,99958.65
2023-01-19T00:06:23.596Z,99961.48
2023-01-19T00:08:50.616Z,99961.48
2023-01-19T00:11:18.246Z,99955.39
2023-01-19T00:13:51.278Z,99946.99
2023-01-19T00:16:18.725Z,99947.55
2023-01-19T00:18:45.952Z,99953.73
2023-01-19T00:21:18.159Z,99946.55
2023-01-19T00:23:47.616Z,99948.75
2023-01-19T00:26:16.368Z,99949.41
2023-01-19T00:28:44.008Z,99951.52
2023-01-19T00:31:11.904Z,99942.96
2023-01-19T00:33:38.812Z,99943.86
2023-01-19T00:36:11.107Z,99948.84
2023-01-19T00:38:39.212Z,99952.17
2023-01-19T00:41:06.330Z,99943.03
2023-01-19T00:43:33.341Z,99951.98
2023-01-19T00:46:00.401Z,99948.41
2023-01-19T00:48:27.306Z,99951.88
2023-01-19T00:50:54.284Z,99950.13
2023-01-19T00:53:21.262Z,99948.16
2023-01-19T00:55:48.163Z,99951.06
2023-01-19T00:58:20.238Z,99955.20
2023-01-19T01:00:47.334Z,99954.14
2023-01-19T01:03:14.465Z,99960.16
2023-01-19T01:05:42.617Z,99955.77
2023-01-19T01:08:09.601Z,99948.81
2023-01-19T01:10:36.535Z,99945.70
2023-01-19T01:13:21.250Z,99940.11
2023-01-19T01:15:53.793Z,99937.18
2023-01-19T01:18:21.133Z,99932.99
2023-01-19T01:20:48.174Z,99932.26
2023-01-19T01:23:15.194Z,99930.27
2023-01-19T01:25:47.935Z,99938.95
2023-01-19T01:28:14.904Z,99929.77
2023-01-19T01:30:43.585Z,99934.64
2023-01-19T01:33:11.958Z,99929.08
2023-01-19T01:35:38.911Z,99934.10
2023-01-19T01:38:10.975Z,99937.25
2023-01-19T01:40:41.217Z,99944.50
2023-01-19T01:43:15.793Z,99942.52
2023-01-19T01:45:42.960Z,99953.44
2023-01-19T01:48:16.080Z,99952.55
2023-01-19T01:51:13.131Z,99949.45
2023-01-19T01:53:40.033Z,99951.70
2023-01-19T01:56:14.339Z,99955.91
2023-01-19T01:58:41.562Z,99960.83
2023-01-19T02:01:29.244Z,99965.27
2023-01-19T02:03:56.700Z,99959.85
2023-01-19T02:06:23.651Z,99965.56
2023-01-19T02:09:21.072Z,99964.13
2023-01-19T02:12:06.622Z,99971.84
2023-01-19T02:14:37.505Z,99980.85
2023-01-19T02:17:04.770Z,99987.32
2023-01-19T02:19:36.853Z,99993.02
2023-01-19T02:22:24.314Z,99994.42
2023-01-19T02:24:51.896Z,99996.25
2023-01-19T02:27:24.030Z,100007.30
2023-01-19T02:29:50.920Z,100010.69
2023-01-19T02:32:22.971Z,100012.46
2023-01-19T02:34:49.956Z,100007.11
2023-01-19T02:37:16.882Z,100008.32
2023-01-19T02:39:54.954Z,100009.91
2023-01-19T02:42:27.626Z,100006.23
2023-01-19T02:45:00.834Z,100006.80
2023-01-19T02:47:27.771Z,100003.53
2023-01-19T02:49:58.616Z,100001.88
2023-01-19T02:52:25.710Z,100006.31
2023-01-19T02:54:58.762Z,100001.50
2023-01-19T02:57:44.887Z,100005.52
2023-01-19T03:00:33.931Z,100001.17
2023-01-19T03:03:20.887Z,100008.16
2023-01-19T03:05:58.334Z,100013.02
2023-01-19T03:08:44.415Z,100014.69
2023-01-19T03:11:12.759Z,100015.47
2023-01-19T03:13:45.768Z,100013.83
2023-01-19T03:16:24.010Z,100017.05
2023-01-19T03:18:56.436Z,100009.53
2023-01-19T03:21:28.475Z,100007.45
2023-01-19T03:23:57.507Z,100008.56
2023-01-19T03:26:26.997Z,100014.94
2023-01-19T03:28:55.197Z,100014.27
2023-01-19T03:31:24.560Z,100018.13
2023-01-19T03:33:53.917Z,100029.05
2023-01-19T03:36:29.785Z,100026.97
2023-01-19T03:38:57.689Z,100035.56
2023-01-19T03:41:24.570Z,100035.20
2023-01-19T03:43:52.127Z,100034.21
2023-01-19T03:46:19.472Z,100030.35
2023-01-19T03:48:46.829Z,100030.09
2023-01-19T03:51:14.590Z,100030.15
2023-01-19T03:53:46.855Z,100031.08
2023-01-19T03:56:22.216Z,100034.30
2023-01-19T03:58:49.191Z,100034.95
2023-01-19T04:01:16.438Z,100034.50
2023-01-19T04:03:43.522Z,100035.75
2023-01-19T04:06:12.804Z,100045.72
2023-01-19T04:08:40.927Z,100053.12
2023-01-19T04:11:08.471Z,100060.31
2023-01-19T04:13:35.523Z,100055.44
2023-01-19T04:16:02.914Z,100058.00
2023-01-19T04:18:31.943Z,100058.18
2023-01-19T04:21:05.047Z,100060.85
2023-01-19T04:23:32.128Z,100063.31
2023-01-19T04:26:05.628Z,100058.11
2023-01-19T04:28:38.361Z,100064.75
2023-01-19T04:31:06.214Z,100058.64
2023-01-19T04:33:38.478Z,100064.30
2023-01-19T04:36:05.840Z,100062.02
2023-01-19T04:38:32.853Z,100063.72
2023-01-19T04:40:59.840Z,100075.05
2023-01-19T04:43:26.740Z,100076.72
2023-01-19T04:45:53.657Z,100079.02
2023-01-19T04:48:20.707Z,100072.64
2023-01-19T04:50:47.687Z,100066.09
2023-01-19T04:53:16.406Z,100075.30
2023-01-19T04:55:48.541Z,100075.34
2023-01-19T04:58:15.965Z,100078.83
2023-01-19T05:00:43.652Z,100083.72
2023-01-19T05:03:10.847Z,100084.94
2023-01-19T05:05:37.828Z,100083.64
2023-01-19T05:08:05.203Z,100088.75
2023-01-19T05:10:32.364Z,100084.91
2023-01-19T05:12:59.555Z,100092.44
2023-01-19T05:15:26.930Z,100095.98
2023-01-19T05:17:53.923Z,100100.45
2023-01-19T05:20:20.846Z,100100.79
2023-01-19T05:22:52.555Z,100104.31
2023-01-19T05:25:19.687Z,100102.87
2023-01-19T05:27:46.621Z,100102.11
2023-01-19T05:30:13.924Z,100111.34
2023-01-19T05:32:40.994Z,100110.64
2023-01-19T05:35:08.353Z,100117.91
2023-01-19T05:37:35.248Z,100119.88
2023-01-19T05:40:07.463Z,100124.55
2023-01-19T05:42:34.418Z,100128.92
2023-01-19T05:45:01.369Z,100133.85
2023-01-19T05:47:31.665Z,100143.37
2023-01-19T05:49:58.626Z,100149.60
2023-01-19T05:52:25.572Z,100148.70
2023-01-19T05:54:53.327Z,100148.91
2023-01-19T05:57:20.197Z,100151.96
2023-01-19T05:59:47.088Z,100153.27
2023-01-19T06:02:14.130Z,100154.17
2023-01-19T06:04:41.251Z,100159.15
2023-01-19T06:07:08.173Z,100160.27
2023-01-19T06:09:35.245Z,100169.45
2023-01-19T06:12:02.212Z,100168.89
2023-01-19T06:14:29.268Z,100171.34
2023-01-19T06:16:56.320Z,100169.73
2023-01-19T06:19:23.592Z,100176.00
2023-01-19T06:21:52.515Z,100177.38
2023-01-19T06:24:19.964Z,100183.59
2023-01-19T06:26:46.996Z,100180.54
2023-01-19T06:29:14.735Z,100184.21
2023-01-19T06:31:42.134Z,100184.17
2023-01-19T06:34:09.671Z,100188.27
2023-01-19T06:36:36.889Z,100188.27
2023-01-19T06:39:06.230Z,100190.98
2023-01-19T06:41:33.887Z,100195.05
2023-01-19T06:44:01.124Z,100194.09
2023-01-19T06:46:28.268Z,100202.01
2023-01-19T06:48:55.332Z,100197.10
2023-01-19T06:51:22.538Z,100187.77
2023-01-19T06:53:54.703Z,100190.11
2023-01-19T06:56:21.717Z,100190.67
2023-01-19T06:58:49.051Z,100188.68
2023-01-19T07:01:16.185Z,100181.61
2023-01-19T07:03:44.473Z,100186.09
2023-01-19T07:06:12.692Z,100189.27
2023-01-19T07:08:40.310Z,100191.11
2023-01-19T07:11:22.982Z,100188.45
2023-01-19T07:13:55.844Z,100184.20
2023-01-19T07:16:23.183Z,100190.18
2023-01-19T07:18:50.373Z,100189.15
2023-01-19T07:21:17.378Z,100193.92
2023-01-19T07:23:44.374Z,100198.02
2023-01-19T07:26:11.359Z,100199.40
2023-01-19T07:28:38.405Z,100201.53
2023-01-19T07:31:05.701Z,100209.74
2023-01-19T07:33:33.188Z,100210.39
2023-01-19T07:36:00.733Z,100209.79
2023-01-19T07:38:27.743Z,100219.92
2023-01-19T07:41:05.316Z,100218.66
2023-01-19T07:43:32.687Z,100220.02
2023-01-19T07:46:00.450Z,100222.77
2023-01-19T07:48:27.813Z,100221.01
2023-01-19T07:51:01.704Z,100217.77
2023-01-19T07:53:28.726Z,100228.20
2023-01-19T07:55:56.924Z,100231.83
2023-01-19T07:58:24.699Z,100230.50
2023-01-19T08:00:51.798Z,100225.28
2023-01-19T08:03:19.109Z,100226.23
2023-01-19T08:05:46.111Z,100226.01
2023-01-19T08:08:13.628Z,100226.89
2023-01-19T08:10:40.587Z,100221.87
2023-01-19T08:13:08.479Z,100222.12
2023-01-19T08:15:35.571Z,100233.74
2023-01-19T08:18:05.856Z,100230.47
2023-01-19T08:20:32.830Z,100229.09
2023-01-19T08:23:00.573Z,100219.52
2023-01-19T08:25:37.968Z,100230.86
2023-01-19T08:28:05.943Z,100233.69
2023-01-19T08:30:33.152Z,100236.42
2023-01-19T08:33:08.399Z,100233.14
2023-01-19T08:35:40.697Z,100235.71
2023-01-19T08:38:08.859Z,100230.11
2023-01-19T08:40:37.547Z,100224.85
2023-01-19T08:43:09.592Z,100220.83
2023-01-19T08:45:37.575Z,100217.54
2023-01-19T08:48:04.971Z,100212.96
2023-01-19T08:50:32.815Z,100214.05
2023-01-19T08:53:01.122Z,100218.68
2023-01-19T08:55:28.882Z,100215.45
2023-01-19T08:58:04.492Z,100216.87
2023-01-19T09:00:33.789Z,100215.52
2023-01-19T09:03:05.390Z,100221.48
2023-01-19T09:05:37.379Z,100218.07
2023-01-19T09:08:05.543Z,100223.11
2023-01-19T09:10:36.144Z,100224.02
2023-01-19T09:13:08.535Z,100223.26
2023-01-19T09:15:38.066Z,100218.45
2023-01-19T09:18:07.332Z,100223.60
2023-01-19T09:20:36.518Z,100221.17
2023-01-19T09:23:03.659Z,100229.31
2023-01-19T09:25:31.124Z,100222.52
2023-01-19T09:28:00.287Z,100223.95
2023-01-19T09:30:27.934Z,100222.38
2023-01-19T09:32:55.040Z,100215.56
2023-01-19T09:35:22.167Z,100209.10
2023-01-19T09:37:49.212Z,100210.35
2023-01-19T09:40:16.464Z,100205.77
2023-01-19T09:42:48.931Z,100213.09
2023-01-19T09:45:23.282Z,100203.30
2023-01-19T09:47:50.422Z,100205.98
2023-01-19T09:50:27.587Z,100207.23
2023-01-19T09:52:57.929Z,100214.52
2023-01-19T09:55:26.351Z,100210.72
2023-01-19T09:57:54.140Z,100212.46
2023-01-19T10:00:24.560Z,100207.42
2023-01-19T10:02:56.140Z,100208.11
2023-01-19T10:05:45.273Z,100209.63
2023-01-19T10:08:42.383Z,100202.70
2023-01-19T10:11:34.351Z,100198.13
2023-01-19T10:14:01.691Z,100197.29
2023-01-19T10:16:35.250Z,100197.77
2023-01-19T10:19:22.949Z,100190.69
2023-01-19T10:21:50.998Z,100184.73
2023-01-19T10:24:28.567Z,100188.46
2023-01-19T10:26:56.629Z,100185.41
2023-01-19T10:29:30.472Z,100184.03
2023-01-19T10:32:23.300Z,100181.83
2023-01-19T10:34:50.653Z,100176.70
2023-01-19T10:37:17.687Z,100171.60
2023-01-19T10:39:46.266Z,100166.38
2023-01-19T10:42:15.143Z,100169.69
2023-01-19T10:44:42.284Z,100164.61
2023-01-19T10:47:15.738Z,100164.11
2023-01-19T10:49:42.909Z,100166.00
2023-01-19T10:52:21.905Z,100163.67
2023-01-19T10:54:48.976Z,100161.13
2023-01-19T10:57:43.630Z,100165.58
2023-01-19T11:00:40.761Z,100170.42
2023-01-19T11:03:30.639Z,100162.39
2023-01-19T11:06:16.157Z,100166.08
2023-01-19T11:08:44.292Z,100162.84
2023-01-19T11:11:12.813Z,100157.48
2023-01-19T11:13:40.509Z,100159.73
2023-01-19T11:16:15.111Z,100159.08
2023-01-19T11:18:42.423Z,100145.51
2023-01-19T11:21:10.052Z,100149.98
2023-01-19T11:23:47.156Z,100151.26
2023-01-19T11:26:16.733Z,100151.26
2023-01-19T11:28:47.315Z,100147.12
2023-01-19T11:31:14.430Z,100153.89
2023-01-19T11:33:49.727Z,100148.21
2023-01-19T11:36:28.783Z,100147.90
2023-01-19T11:38:57.438Z,100148.96
2023-01-19T11:41:29.894Z,100150.59
2023-01-19T11:43:58.717Z,100138.00
2023-01-19T11:46:28.671Z,100141.66
2023-01-19T11:49:22.719Z,100145.88
2023-01-19T11:52:15.774Z,100145.61
2023-01-19T11:54:50.539Z,100142.06
2023-01-19T11:57:17.594Z,100138.06
2023-01-19T11:59:44.917Z,100128.86
2023-01-19T12:02:28.516Z,100138.13
2023-01-19T12:04:58.187Z,100140.25
2023-01-19T12:07:29.627Z,100139.61
2023-01-19T12:10:13.900Z,100141.92
2023-01-19T12:12:40.937Z,100142.65
2023-01-19T12:15:23.532Z,100144.62
2023-01-19T12:17:51.722Z,100146.08
2023-01-19T12:20:32.037Z,100151.17
2023-01-19T12:23:03.380Z,100155.38
2023-01-19T12:25:57.163Z,100157.30
2023-01-19T12:28:29.306Z,100149.30
2023-01-19T12:30:56.493Z,100153.89
2023-01-19T12:33:26.627Z,100158.94
2023-01-19T12:36:04.154Z,100160.67
2023-01-19T12:38:43.446Z,100167.99
2023-01-19T12:41:30.989Z,100164.71
2023-01-19T12:44:11.028Z,100162.23
2023-01-19T12:46:46.085Z,100164.28
2023-01-19T12:49:40.449Z,100167.68
2023-01-19T12:52:34.617Z,100164.20
2023-01-19T12:55:15.538Z,100174.42
2023-01-19T12:58:13.172Z,100163.82
2023-01-19T13:00:44.119Z,100160.88
2023-01-19T13:03:17.380Z,100160.48
2023-01-19T13:05:44.440Z,100158.96
2023-01-19T13:08:14.245Z,100156.60
2023-01-19T13:10:54.486Z,100158.95
2023-01-19T13:13:26.495Z,100163.05
2023-01-19T13:15:55.850Z,100164.58
2023-01-19T13:18:35.448Z,100160.73
2023-01-19T13:21:05.178Z,100160.52
2023-01-19T13:23:48.005Z,100155.11
2023-01-19T13:26:15.946Z,100157.92
2023-01-19T13:28:48.576Z,100160.60
2023-01-19T13:31:15.882Z,100167.34
2023-01-19T13:33:47.956Z,100169.02
2023-01-19T13:36:37.850Z,100166.77
2023-01-19T13:39:07.230Z,100170.23
2023-01-19T13:41:39.297Z,100179.03
2023-01-19T13:44:19.419Z,100182.73
2023-01-19T13:46:46.953Z,100188.13
2023-01-19T13:49:16.000Z,100195.02
2023-01-19T13:51:42.915Z,100194.59
2023-01-19T13:54:15.788Z,100191.44
2023-01-19T13:56:52.733Z,100188.33
2023-01-19T13:59:19.945Z,100188.08
2023-01-19T14:01:47.379Z,100191.44
2023-01-19T14:04:31.550Z,100192.72
2023-01-19T14:07:03.801Z,100190.15
2023-01-19T14:09:30.962Z,100192.98
2023-01-19T14:12:12.345Z,100196.60
2023-01-19T14:14:39.674Z,100187.99
2023-01-19T14:17:19.363Z,100186.99
2023-01-19T14:19:59.212Z,100190.35
2023-01-19T14:22:47.050Z,100185.76
2023-01-19T14:25:33.798Z,100193.75
2023-01-19T14:28:20.635Z,100198.89
2023-01-19T14:31:01.051Z,100192.21
2023-01-19T14:33:46.336Z,100198.76
2023-01-19T14:36:29.099Z,100194.14
2023-01-19T14:38:57.744Z,100196.51
2023-01-19T14:41:48.051Z,100200.55
2023-01-19T14:44:18.313Z,100202.35
2023-01-19T14:46:48.835Z,100199.70
2023-01-19T14:49:22.979Z,100201.40
2023-01-19T14:51:49.947Z,100202.21
2023-01-19T14:54:18.374Z,100199.92
2023-01-19T14:56:45.493Z,100205.31
2023-01-19T14:59:12.723Z,100211.08
2023-01-19T15:01:44.941Z,100210.30
2023-01-19T15:04:12.128Z,100216.86
2023-01-19T15:06:45.988Z,100219.10
2023-01-19T15:09:18.242Z,100219.23
2023-01-19T15:11:46.869Z,100220.95
2023-01-19T15:14:14.545Z,100229.58
2023-01-19T15:16:41.798Z,100234.84
2023-01-19T15:19:13.174Z,100237.92
2023-01-19T15:21:43.172Z,100238.10
2023-01-19T15:24:10.781Z,100235.64
2023-01-19T15:26:38.788Z,100246.06
2023-01-19T15:29:21.036Z,100245.83
2023-01-19T15:31:48.373Z,100250.02
2023-01-19T15:34:15.368Z,100255.39
2023-01-19T15:36:43.101Z,100258.75
2023-01-19T15:39:10.979Z,100260.15
2023-01-19T15:41:41.108Z,100261.19
2023-01-19T15:44:10.836Z,100274.73
2023-01-19T15:46:38.655Z,100272.95
2023-01-19T15:49:08.521Z,100271.83
2023-01-19T15:51:35.486Z,100271.44
2023-01-19T15:54:02.518Z,100269.81
2023-01-19T15:56:30.187Z,100270.20
2023-01-19T15:58:58.238Z,100270.13
2023-01-19T16:01:34.062Z,100272.91
2023-01-19T16:04:03.409Z,100277.06
2023-01-19T16:06:30.875Z,100277.20
2023-01-19T16:08:59.954Z,100277.92
2023-01-19T16:11:28.969Z,100276.29
2023-01-19T16:13:56.100Z,100273.03
2023-01-19T16:16:24.005Z,100274.27
2023-01-19T16:18:51.169Z,100284.40
2023-01-19T16:21:18.315Z,100288.90
2023-01-19T16:23:45.261Z,100290.88
2023-01-19T16:26:25.753Z,100292.92
2023-01-19T16:28:55.494Z,100292.25
2023-01-19T16:31:22.448Z,100293.35
2023-01-19T16:33:54.749Z,100291.23
2023-01-19T16:36:29.823Z,100294.27
2023-01-19T16:39:10.957Z,100297.47
2023-01-19T16:41:38.042Z,100299.80
2023-01-19T16:44:05.296Z,100305.08
2023-01-19T16:46:37.087Z,100303.64
2023-01-19T16:49:10.558Z,100303.44
2023-01-19T16:51:37.593Z,100306.28
2023-01-19T16:54:04.786Z,100311.13
2023-01-19T16:56:31.745Z,100306.07
2023-01-19T16:58:59.485Z,100300.45
2023-01-19T17:01:27.569Z,100303.59
2023-01-19T17:03:55.368Z,100309.12
2023-01-19T17:06:22.955Z,100313.89
2023-01-19T17:08:50.601Z,100311.23
2023-01-19T17:11:22.701Z,100311.75
2023-01-19T17:13:54.762Z,100311.63
2023-01-19T17:16:22.846Z,100312.59
2023-01-19T17:18:50.120Z,100316.31
2023-01-19T17:21:18.183Z,100313.52
2023-01-19T17:23:46.388Z,100319.33
2023-01-19T17:26:13.731Z,100321.91
2023-01-19T17:28:45.905Z,100324.10
2023-01-19T17:31:17.815Z,100331.90
2023-01-19T17:33:45.721Z,100321.05
2023-01-19T17:36:14.571Z,100317.36
2023-01-19T17:38:41.872Z,100314.27
2023-01-19T17:41:17.152Z,100311.89
2023-01-19T17:43:44.301Z,100312.42
2023-01-19T17:46:11.319Z,100311.78
2023-01-19T17:48:38.344Z,100314.41
2023-01-19T17:51:06.559Z,100314.46
2023-01-19T17:53:34.169Z,100315.58
2023-01-19T17:56:14.283Z,100321.41
2023-01-19T17:58:41.614Z,100313.04
2023-01-19T18:01:13.157Z,100310.90
2023-01-19T18:03:40.341Z,100317.04
2023-01-19T18:06:07.800Z,100321.38
2023-01-19T18:08:36.424Z,100323.80
2023-01-19T18:11:08.760Z,100326.88
2023-01-19T18:13:36.831Z,100327.63
2023-01-19T18:16:06.322Z,100330.90
2023-01-19T18:18:33.970Z,100330.40
2023-01-19T18:21:02.216Z,100328.80
2023-01-19T18:23:29.339Z,100327.86
2023-01-19T18:26:13.008Z,100323.69
2023-01-19T18:28:40.254Z,100324.71
2023-01-19T18:31:17.856Z,100327.74
2023-01-19T18:33:45.093Z,100328.05
2023-01-19T18:36:12.204Z,100326.81
2023-01-19T18:38:39.606Z,100332.08
2023-01-19T18:41:14.767Z,100330.59
2023-01-19T18:43:41.879Z,100333.02
2023-01-19T18:46:14.664Z,100336.02
2023-01-19T18:48:41.613Z,100339.91
2023-01-19T18:51:10.047Z,100338.73
2023-01-19T18:53:42.849Z,100341.67
2023-01-19T18:56:17.363Z,100336.77
2023-01-19T18:58:44.720Z,100334.18
2023-01-19T19:01:42.322Z,100336.60
2023-01-19T19:04:09.703Z,100335.07
2023-01-19T19:06:37.112Z,100340.70
2023-01-19T19:09:10.589Z,100341.65
2023-01-19T19:11:37.985Z,100347.35
2023-01-19T19:14:05.135Z,100349.95
2023-01-19T19:16:35.416Z,100341.61
2023-01-19T19:19:03.248Z,100341.66
2023-01-19T19:21:30.385Z,100340.45
2023-01-19T19:23:58.046Z,100339.45
2023-01-19T19:26:25.800Z,100341.10
2023-01-19T19:28:52.970Z,100342.77
2023-01-19T19:31:26.041Z,100350.34
2023-01-19T19:33:53.910Z,100350.59
2023-01-19T19:36:21.897Z,100352.82
2023-01-19T19:38:50.223Z,100355.49
2023-01-19T19:41:22.304Z,100360.64
2023-01-19T19:43:49.665Z,100355.23
2023-01-19T19:46:20.027Z,100351.73
2023-01-19T19:48:53.009Z,100351.60
2023-01-19T19:51:28.388Z,100356.16
2023-01-19T19:53:57.280Z,100360.05
2023-01-19T19:56:25.108Z,100355.53
2023-01-19T19:58:52.539Z,100354.58
2023-01-19T20:01:21.311Z,100357.09
2023-01-19T20:03:49.479Z,100352.48
2023-01-19T20:06:20.872Z,100354.20
2023-01-19T20:08:54.714Z,100357.44
2023-01-19T20:11:26.948Z,100353.27
2023-01-19T20:13:54.240Z,100355.67
2023-01-19T20:16:22.492Z,100356.30
2023-01-19T20:18:54.443Z,100355.34
2023-01-19T20:21:22.616Z,100359.23
2023-01-19T20:23:50.728Z,100369.63
2023-01-19T20:26:19.587Z,100371.48
2023-01-19T20:28:52.104Z,100376.84
2023-01-19T20:31:27.922Z,100380.40
2023-01-19T20:34:01.351Z,100381.88
2023-01-19T20:36:29.055Z,100380.86
2023-01-19T20:38:56.674Z,100377.42
2023-01-19T20:41:29.566Z,100377.98
2023-01-19T20:43:56.793Z,100386.95
2023-01-19T20:46:23.749Z,100395.39
2023-01-19T20:48:53.920Z,100396.23
2023-01-19T20:51:20.966Z,100395.31
2023-01-19T20:53:48.150Z,100393.73
2023-01-19T20:56:15.512Z,100397.02
2023-01-19T20:58:42.551Z,100398.17
2023-01-19T21:01:14.480Z,100395.34
2023-01-19T21:03:41.552Z,100393.91
2023-01-19T21:06:08.881Z,100392.54
2023-01-19T21:08:35.977Z,100395.20
2023-01-19T21:11:08.421Z,100398.24
2023-01-19T21:13:40.438Z,100399.78
2023-01-19T21:16:08.016Z,100399.17
2023-01-19T21:18:35.179Z,100399.55
2023-01-19T21:21:02.520Z,100401.80
2023-01-19T21:23:29.684Z,100403.74
2023-01-19T21:26:02.097Z,100408.40
2023-01-19T21:28:29.278Z,100405.98
2023-01-19T21:30:56.484Z,100411.84
2023-01-19T21:33:28.917Z,100414.27
2023-01-19T21:35:57.168Z,100417.70
2023-01-19T21:38:26.790Z,100418.01
2023-01-19T21:40:59.858Z,100415.16
2023-01-19T21:43:26.874Z,100414.86
2023-01-19T21:45:53.931Z,100409.51
2023-01-19T21:48:21.234Z,100408.47
2023-01-19T21:50:57.181Z,100401.81
2023-01-19T21:53:24.479Z,100396.83
2023-01-19T21:55:51.547Z,100397.71
2023-01-19T21:58:18.517Z,100397.21
2023-01-19T22:00:45.661Z,100401.61
2023-01-19T22:03:12.716Z,100398.92
2023-01-19T22:05:39.691Z,100401.18
2023-01-19T22:08:06.757Z,100404.12
2023-01-19T22:10:38.182Z,100404.42
2023-01-19T22:13:06.837Z,100404.10
2023-01-19T22:15:33.861Z,100405.64
2023-01-19T22:18:05.891Z,100408.02
2023-01-19T22:20:32.958Z,100407.77
2023-01-19T22:23:00.097Z,100407.93
2023-01-19T22:25:28.118Z,100409.02
2023-01-19T22:27:55.861Z,100416.19
2023-01-19T22:30:22.845Z,100412.05
2023-01-19T22:32:55.069Z,100417.99
2023-01-19T22:35:27.128Z,100418.86
2023-01-19T22:37:54.080Z,100413.92
2023-01-19T22:40:21.253Z,100418.48
2023-01-19T22:42:48.385Z,100423.05
2023-01-19T22:45:15.803Z,100424.20
2023-01-19T22:47:43.141Z,100426.46
2023-01-19T22:50:10.656Z,100428.02
2023-01-19T22:52:42.786Z,100431.40
2023-01-19T22:55:10.120Z,100424.88
2023-01-19T22:57:42.748Z,100427.44
2023-01-19T23:00:10.850Z,100436.36
2023-01-19T23:02:37.932Z,100435.05
2023-01-19T23:05:05.205Z,100444.90
2023-01-19T23:07:37.342Z,100437.73
2023-01-19T23:10:04.647Z,100438.65
2023-01-19T23:12:31.583Z,100443.84
2023-01-19T23:14:58.842Z,100441.25
2023-01-19T23:17:25.841Z,100441.54
2023-01-19T23:19:52.808Z,100443.80
2023-01-19T23:22:19.895Z,100444.27
2023-01-19T23:24:47.033Z,100440.88
2023-01-19T23:27:14.080Z,100439.15
2023-01-19T23:29:46.179Z,100439.83
2023-01-19T23:32:13.250Z,100445.64
2023-01-19T23:34:40.197Z,100440.80
2023-01-19T23:37:07.187Z,100443.14
2023-01-19T23:39:34.240Z,100443.92
2023-01-19T23:42:01.116Z,100443.77
2023-01-19T23:44:33.235Z,100450.59
2023-01-19T23:47:00.287Z,100452.10
2023-01-19T23:49:27.632Z,100456.57
2023-01-19T23:51:59.911Z,100464.64
2023-01-19T23:54:26.933Z,100463.27
2023-01-19T23:56:54.015Z,100468.11
2023-01-19T23:59:21.017Z,100462.36
